Tijucas, Brazil
Current Conditions -  °F | °C
As of 12:00 PM on Saturday 20 Dec 2014 (Local Time) from SBNF Reporting Station
Scattered Clouds Scattered Clouds  
Wind Chill: 86°   Ceiling: Unl
Heat Index: 97°   Visibility: 6mi
Dew Point: 77°   Wind: 5mph
Humidity: 74%   Direction: 70°ENE
Pressure: 29.77"   Gusts: NA
Location:  27.21°S, 48.61°W
Report Text: SBNF 201400Z 07004KT 9999 FEW026 SCT100 30/25 Q1008
Loading
Personal Weather Stations






























Interactive Weather Map New forecast layout! Learn more

10-Day Weather Forecast

Advertisements
Track Severe Weather on mobile